sensor_id;sensor_type;location;lat;lon;timestamp;temperature;humidity
13892;DHT22;7016;48.172;8.058;2023-06-04T00:01:59;18.00;94.30
13892;DHT22;7016;48.172;8.058;2023-06-04T00:04:45;18.00;94.20
13892;DHT22;7016;48.172;8.058;2023-06-04T00:07:31;18.00;94.60
13892;DHT22;7016;48.172;8.058;2023-06-04T00:10:17;17.80;94.90
13892;DHT22;7016;48.172;8.058;2023-06-04T00:13:04;17.60;95.00
13892;DHT22;7016;48.172;8.058;2023-06-04T00:15:50;17.60;95.00
13892;DHT22;7016;48.172;8.058;2023-06-04T00:18:36;17.50;94.90
13892;DHT22;7016;48.172;8.058;2023-06-04T00:21:22;17.50;95.00
13892;DHT22;7016;48.172;8.058;2023-06-04T00:24:08;17.50;94.60
13892;DHT22;7016;48.172;8.058;2023-06-04T00:26:54;17.60;94.80
13892;DHT22;7016;48.172;8.058;2023-06-04T00:29:41;17.60;94.50
13892;DHT22;7016;48.172;8.058;2023-06-04T00:32:27;17.50;94.80
13892;DHT22;7016;48.172;8.058;2023-06-04T00:35:13;17.30;94.90
13892;DHT22;7016;48.172;8.058;2023-06-04T00:37:59;17.10;95.10
13892;DHT22;7016;48.172;8.058;2023-06-04T00:40:45;17.10;95.40
13892;DHT22;7016;48.172;8.058;2023-06-04T00:43:31;17.20;95.20
13892;DHT22;7016;48.172;8.058;2023-06-04T00:46:18;17.30;95.10
13892;DHT22;7016;48.172;8.058;2023-06-04T00:49:07;17.20;95.20
13892;DHT22;7016;48.172;8.058;2023-06-04T00:51:53;17.10;95.50
13892;DHT22;7016;48.172;8.058;2023-06-04T00:54:39;17.10;95.80
13892;DHT22;7016;48.172;8.058;2023-06-04T00:57:26;16.90;95.60
13892;DHT22;7016;48.172;8.058;2023-06-04T01:00:13;16.80;95.90
13892;DHT22;7016;48.172;8.058;2023-06-04T01:03:00;16.80;95.80
13892;DHT22;7016;48.172;8.058;2023-06-04T01:06:00;16.80;95.70
13892;DHT22;7016;48.172;8.058;2023-06-04T01:08:50;16.70;95.70
13892;DHT22;7016;48.172;8.058;2023-06-04T01:11:40;16.60;96.00
13892;DHT22;7016;48.172;8.058;2023-06-04T01:14:26;16.70;96.20
13892;DHT22;7016;48.172;8.058;2023-06-04T01:17:40;16.60;96.30
13892;DHT22;7016;48.172;8.058;2023-06-04T01:20:44;16.60;96.40
13892;DHT22;7016;48.172;8.058;2023-06-04T01:26:21;16.50;96.30
13892;DHT22;7016;48.172;8.058;2023-06-04T01:29:07;16.50;96.00
13892;DHT22;7016;48.172;8.058;2023-06-04T01:31:53;16.40;96.40
13892;DHT22;7016;48.172;8.058;2023-06-04T01:34:45;16.40;96.30
13892;DHT22;7016;48.172;8.058;2023-06-04T01:37:31;16.30;96.40
13892;DHT22;7016;48.172;8.058;2023-06-04T01:40:17;16.30;96.50
13892;DHT22;7016;48.172;8.058;2023-06-04T01:43:03;16.30;96.60
13892;DHT22;7016;48.172;8.058;2023-06-04T01:45:50;16.30;96.60
13892;DHT22;7016;48.172;8.058;2023-06-04T01:48:36;16.20;96.60
13892;DHT22;7016;48.172;8.058;2023-06-04T01:51:23;16.20;96.50
13892;DHT22;7016;48.172;8.058;2023-06-04T01:54:09;16.10;96.70
13892;DHT22;7016;48.172;8.058;2023-06-04T01:56:55;16.10;97.00
13892;DHT22;7016;48.172;8.058;2023-06-04T01:59:41;16.10;96.70
13892;DHT22;7016;48.172;8.058;2023-06-04T02:02:28;16.10;97.10
13892;DHT22;7016;48.172;8.058;2023-06-04T02:05:14;15.90;97.20
13892;DHT22;7016;48.172;8.058;2023-06-04T02:08:00;16.00;97.30
13892;DHT22;7016;48.172;8.058;2023-06-04T02:10:48;16.00;97.20
13892;DHT22;7016;48.172;8.058;2023-06-04T02:13:34;15.90;97.60
13892;DHT22;7016;48.172;8.058;2023-06-04T02:16:21;15.80;97.30
13892;DHT22;7016;48.172;8.058;2023-06-04T02:19:07;15.90;97.40
13892;DHT22;7016;48.172;8.058;2023-06-04T02:21:54;15.80;97.20
13892;DHT22;7016;48.172;8.058;2023-06-04T02:24:40;15.70;97.40
13892;DHT22;7016;48.172;8.058;2023-06-04T02:27:29;15.70;97.40
13892;DHT22;7016;48.172;8.058;2023-06-04T02:30:15;15.70;97.90
13892;DHT22;7016;48.172;8.058;2023-06-04T02:33:03;15.70;97.70
13892;DHT22;7016;48.172;8.058;2023-06-04T02:35:49;15.70;97.70
13892;DHT22;7016;48.172;8.058;2023-06-04T02:38:36;15.60;98.10
13892;DHT22;7016;48.172;8.058;2023-06-04T02:41:23;15.50;98.00
13892;DHT22;7016;48.172;8.058;2023-06-04T02:44:09;15.60;98.00
13892;DHT22;7016;48.172;8.058;2023-06-04T02:46:56;15.70;97.90
13892;DHT22;7016;48.172;8.058;2023-06-04T02:49:42;15.60;98.10
13892;DHT22;7016;48.172;8.058;2023-06-04T02:52:29;15.60;98.10
13892;DHT22;7016;48.172;8.058;2023-06-04T02:55:16;15.70;97.90
13892;DHT22;7016;48.172;8.058;2023-06-04T02:58:02;15.70;98.10
13892;DHT22;7016;48.172;8.058;2023-06-04T03:00:48;15.60;97.90
13892;DHT22;7016;48.172;8.058;2023-06-04T03:03:35;15.50;98.10
13892;DHT22;7016;48.172;8.058;2023-06-04T03:06:22;15.60;98.40
13892;DHT22;7016;48.172;8.058;2023-06-04T03:09:08;15.60;98.60
13892;DHT22;7016;48.172;8.058;2023-06-04T03:11:56;15.50;98.20
13892;DHT22;7016;48.172;8.058;2023-06-04T03:14:42;15.60;98.30
13892;DHT22;7016;48.172;8.058;2023-06-04T03:17:30;15.50;98.30
13892;DHT22;7016;48.172;8.058;2023-06-04T03:20:18;15.40;98.40
13892;DHT22;7016;48.172;8.058;2023-06-04T03:23:04;15.40;98.20
13892;DHT22;7016;48.172;8.058;2023-06-04T03:25:50;15.30;98.30
13892;DHT22;7016;48.172;8.058;2023-06-04T03:28:36;15.30;98.30
13892;DHT22;7016;48.172;8.058;2023-06-04T03:31:22;15.40;98.50
13892;DHT22;7016;48.172;8.058;2023-06-04T03:34:09;15.30;98.30
13892;DHT22;7016;48.172;8.058;2023-06-04T03:36:55;15.20;98.40
13892;DHT22;7016;48.172;8.058;2023-06-04T03:39:41;15.20;98.40
13892;DHT22;7016;48.172;8.058;2023-06-04T03:42:27;15.10;98.70
13892;DHT22;7016;48.172;8.058;2023-06-04T03:45:13;15.00;98.80
13892;DHT22;7016;48.172;8.058;2023-06-04T03:47:59;15.00;98.80
13892;DHT22;7016;48.172;8.058;2023-06-04T03:50:46;15.10;99.00
13892;DHT22;7016;48.172;8.058;2023-06-04T03:53:32;15.00;99.00
13892;DHT22;7016;48.172;8.058;2023-06-04T03:56:18;15.10;99.20
13892;DHT22;7016;48.172;8.058;2023-06-04T03:59:04;15.10;99.20
13892;DHT22;7016;48.172;8.058;2023-06-04T04:01:50;15.00;99.20
13892;DHT22;7016;48.172;8.058;2023-06-04T04:04:36;15.00;99.30
13892;DHT22;7016;48.172;8.058;2023-06-04T04:07:23;15.00;99.30
13892;DHT22;7016;48.172;8.058;2023-06-04T04:10:10;15.10;99.20
13892;DHT22;7016;48.172;8.058;2023-06-04T04:12:56;15.00;99.40
13892;DHT22;7016;48.172;8.058;2023-06-04T04:15:44;15.00;99.70
13892;DHT22;7016;48.172;8.058;2023-06-04T04:18:34;15.10;99.40
13892;DHT22;7016;48.172;8.058;2023-06-04T04:21:21;15.10;99.50
13892;DHT22;7016;48.172;8.058;2023-06-04T04:24:07;15.20;99.50
13892;DHT22;7016;48.172;8.058;2023-06-04T04:26:54;15.20;99.60
13892;DHT22;7016;48.172;8.058;2023-06-04T04:29:40;15.20;99.90
13892;DHT22;7016;48.172;8.058;2023-06-04T04:32:28;15.10;99.90
13892;DHT22;7016;48.172;8.058;2023-06-04T04:35:15;15.00;99.90
13892;DHT22;7016;48.172;8.058;2023-06-04T04:38:03;15.00;99.90
13892;DHT22;7016;48.172;8.058;2023-06-04T04:40:50;15.10;99.90
13892;DHT22;7016;48.172;8.058;2023-06-04T04:43:38;15.20;99.90
13892;DHT22;7016;48.172;8.058;2023-06-04T04:46:25;15.30;99.90
13892;DHT22;7016;48.172;8.058;2023-06-04T04:49:11;15.30;99.90
13892;DHT22;7016;48.172;8.058;2023-06-04T04:51:57;15.50;99.90
13892;DHT22;7016;48.172;8.058;2023-06-04T04:54:44;15.50;99.90
13892;DHT22;7016;48.172;8.058;2023-06-04T04:57:30;15.50;99.90
13892;DHT22;7016;48.172;8.058;2023-06-04T05:00:16;15.60;99.90
13892;DHT22;7016;48.172;8.058;2023-06-04T05:03:03;15.60;99.90
13892;DHT22;7016;48.172;8.058;2023-06-04T05:05:49;15.60;99.90
13892;DHT22;7016;48.172;8.058;2023-06-04T05:08:35;15.60;99.90
13892;DHT22;7016;48.172;8.058;2023-06-04T05:11:21;15.70;99.90
13892;DHT22;7016;48.172;8.058;2023-06-04T05:14:08;15.70;99.90
13892;DHT22;7016;48.172;8.058;2023-06-04T05:16:54;15.80;99.90
13892;DHT22;7016;48.172;8.058;2023-06-04T05:19:43;15.80;99.90
13892;DHT22;7016;48.172;8.058;2023-06-04T05:22:30;15.90;99.90
13892;DHT22;7016;48.172;8.058;2023-06-04T05:25:18;15.90;99.90
13892;DHT22;7016;48.172;8.058;2023-06-04T05:28:04;15.90;99.90
13892;DHT22;7016;48.172;8.058;2023-06-04T05:30:53;16.00;99.90
13892;DHT22;7016;48.172;8.058;2023-06-04T05:33:44;16.00;99.90
13892;DHT22;7016;48.172;8.058;2023-06-04T05:36:31;16.10;99.90
13892;DHT22;7016;48.172;8.058;2023-06-04T05:39:17;16.20;99.90
13892;DHT22;7016;48.172;8.058;2023-06-04T05:42:04;16.30;99.90
13892;DHT22;7016;48.172;8.058;2023-06-04T05:44:52;16.50;99.90
13892;DHT22;7016;48.172;8.058;2023-06-04T05:47:38;16.90;99.90
13892;DHT22;7016;48.172;8.058;2023-06-04T05:50:25;16.90;99.90
13892;DHT22;7016;48.172;8.058;2023-06-04T05:53:11;17.10;99.90
13892;DHT22;7016;48.172;8.058;2023-06-04T05:55:57;17.30;99.90
13892;DHT22;7016;48.172;8.058;2023-06-04T05:58:43;17.40;99.90
13892;DHT22;7016;48.172;8.058;2023-06-04T06:01:29;17.50;99.90
13892;DHT22;7016;48.172;8.058;2023-06-04T06:04:16;17.60;99.80
13892;DHT22;7016;48.172;8.058;2023-06-04T06:07:02;17.80;98.90
13892;DHT22;7016;48.172;8.058;2023-06-04T06:09:48;17.90;97.00
13892;DHT22;7016;48.172;8.058;2023-06-04T06:12:34;17.80;97.60
13892;DHT22;7016;48.172;8.058;2023-06-04T06:15:20;17.80;97.40
13892;DHT22;7016;48.172;8.058;2023-06-04T06:18:07;17.90;97.70
13892;DHT22;7016;48.172;8.058;2023-06-04T06:20:53;17.90;98.30
13892;DHT22;7016;48.172;8.058;2023-06-04T06:23:39;17.80;98.70
13892;DHT22;7016;48.172;8.058;2023-06-04T06:26:26;17.90;99.00
13892;DHT22;7016;48.172;8.058;2023-06-04T06:29:12;17.90;99.40
13892;DHT22;7016;48.172;8.058;2023-06-04T06:31:58;18.00;99.20
13892;DHT22;7016;48.172;8.058;2023-06-04T06:34:45;18.20;99.00
13892;DHT22;7016;48.172;8.058;2023-06-04T06:37:31;18.30;98.20
13892;DHT22;7016;48.172;8.058;2023-06-04T06:40:19;18.40;97.80
13892;DHT22;7016;48.172;8.058;2023-06-04T06:43:05;18.60;96.80
13892;DHT22;7016;48.172;8.058;2023-06-04T06:45:51;18.60;96.10
13892;DHT22;7016;48.172;8.058;2023-06-04T06:48:37;18.90;96.90
13892;DHT22;7016;48.172;8.058;2023-06-04T06:51:24;18.80;97.10
13892;DHT22;7016;48.172;8.058;2023-06-04T06:54:10;18.80;97.50
13892;DHT22;7016;48.172;8.058;2023-06-04T06:56:56;18.70;98.30
13892;DHT22;7016;48.172;8.058;2023-06-04T06:59:43;18.50;97.90
13892;DHT22;7016;48.172;8.058;2023-06-04T07:02:29;18.50;97.80
13892;DHT22;7016;48.172;8.058;2023-06-04T07:05:15;18.60;97.50
13892;DHT22;7016;48.172;8.058;2023-06-04T07:08:03;18.60;96.90
13892;DHT22;7016;48.172;8.058;2023-06-04T07:10:49;18.60;97.20
13892;DHT22;7016;48.172;8.058;2023-06-04T07:13:35;18.60;97.00
13892;DHT22;7016;48.172;8.058;2023-06-04T07:16:22;18.70;96.80
13892;DHT22;7016;48.172;8.058;2023-06-04T07:19:08;19.00;96.20
13892;DHT22;7016;48.172;8.058;2023-06-04T07:21:54;19.10;96.20
13892;DHT22;7016;48.172;8.058;2023-06-04T07:24:42;19.20;96.40
13892;DHT22;7016;48.172;8.058;2023-06-04T07:27:28;19.30;96.90
13892;DHT22;7016;48.172;8.058;2023-06-04T07:30:14;19.20;96.30
13892;DHT22;7016;48.172;8.058;2023-06-04T07:33:00;19.10;96.60
13892;DHT22;7016;48.172;8.058;2023-06-04T07:35:46;19.00;96.60
13892;DHT22;7016;48.172;8.058;2023-06-04T07:38:33;18.70;96.90
13892;DHT22;7016;48.172;8.058;2023-06-04T07:41:19;18.70;97.40
13892;DHT22;7016;48.172;8.058;2023-06-04T07:44:06;18.70;97.70
13892;DHT22;7016;48.172;8.058;2023-06-04T07:46:52;18.80;97.50
13892;DHT22;7016;48.172;8.058;2023-06-04T07:49:38;18.90;97.10
13892;DHT22;7016;48.172;8.058;2023-06-04T07:52:24;19.00;97.30
13892;DHT22;7016;48.172;8.058;2023-06-04T07:55:10;19.10;97.50
13892;DHT22;7016;48.172;8.058;2023-06-04T07:57:56;19.10;97.40
13892;DHT22;7016;48.172;8.058;2023-06-04T08:00:42;19.00;97.60
13892;DHT22;7016;48.172;8.058;2023-06-04T08:03:29;18.90;97.70
13892;DHT22;7016;48.172;8.058;2023-06-04T08:06:16;18.90;97.70
13892;DHT22;7016;48.172;8.058;2023-06-04T08:09:02;18.80;97.60
13892;DHT22;7016;48.172;8.058;2023-06-04T08:11:49;18.80;98.00
13892;DHT22;7016;48.172;8.058;2023-06-04T08:14:35;18.80;97.90
13892;DHT22;7016;48.172;8.058;2023-06-04T08:17:21;18.80;98.10
13892;DHT22;7016;48.172;8.058;2023-06-04T08:20:07;18.80;98.20
13892;DHT22;7016;48.172;8.058;2023-06-04T08:22:57;18.90;98.00
13892;DHT22;7016;48.172;8.058;2023-06-04T08:25:43;19.00;97.80
13892;DHT22;7016;48.172;8.058;2023-06-04T08:28:29;19.00;97.80
13892;DHT22;7016;48.172;8.058;2023-06-04T08:31:15;19.10;98.00
13892;DHT22;7016;48.172;8.058;2023-06-04T08:34:02;19.10;97.70
13892;DHT22;7016;48.172;8.058;2023-06-04T08:36:51;19.30;97.80
13892;DHT22;7016;48.172;8.058;2023-06-04T08:39:37;19.30;97.70
13892;DHT22;7016;48.172;8.058;2023-06-04T08:42:30;19.40;97.40
13892;DHT22;7016;48.172;8.058;2023-06-04T08:45:19;19.50;97.40
13892;DHT22;7016;48.172;8.058;2023-06-04T08:48:09;19.60;96.60
13892;DHT22;7016;48.172;8.058;2023-06-04T08:50:57;19.80;96.70
13892;DHT22;7016;48.172;8.058;2023-06-04T08:53:45;19.80;95.80
13892;DHT22;7016;48.172;8.058;2023-06-04T08:56:36;19.90;95.70
13892;DHT22;7016;48.172;8.058;2023-06-04T08:59:22;19.90;95.20
13892;DHT22;7016;48.172;8.058;2023-06-04T09:02:09;20.00;95.20
13892;DHT22;7016;48.172;8.058;2023-06-04T09:04:56;20.10;95.30
13892;DHT22;7016;48.172;8.058;2023-06-04T09:07:42;20.10;94.40
13892;DHT22;7016;48.172;8.058;2023-06-04T09:10:29;20.10;94.60
13892;DHT22;7016;48.172;8.058;2023-06-04T09:13:17;20.20;93.20
13892;DHT22;7016;48.172;8.058;2023-06-04T09:16:04;20.10;92.70
13892;DHT22;7016;48.172;8.058;2023-06-04T09:18:51;20.30;92.20
13892;DHT22;7016;48.172;8.058;2023-06-04T09:21:52;20.30;92.80
13892;DHT22;7016;48.172;8.058;2023-06-04T09:27:26;20.50;93.40
13892;DHT22;7016;48.172;8.058;2023-06-04T09:30:14;20.50;92.20
13892;DHT22;7016;48.172;8.058;2023-06-04T09:33:07;20.40;92.30
13892;DHT22;7016;48.172;8.058;2023-06-04T09:35:55;20.60;93.40
13892;DHT22;7016;48.172;8.058;2023-06-04T09:38:41;20.70;92.40
13892;DHT22;7016;48.172;8.058;2023-06-04T09:41:28;20.70;92.90
13892;DHT22;7016;48.172;8.058;2023-06-04T09:44:14;20.80;92.60
13892;DHT22;7016;48.172;8.058;2023-06-04T09:47:00;20.90;92.30
13892;DHT22;7016;48.172;8.058;2023-06-04T09:49:49;20.90;92.30
13892;DHT22;7016;48.172;8.058;2023-06-04T09:52:36;20.90;92.10
13892;DHT22;7016;48.172;8.058;2023-06-04T09:55:23;21.00;92.40
13892;DHT22;7016;48.172;8.058;2023-06-04T09:58:11;21.10;92.20
13892;DHT22;7016;48.172;8.058;2023-06-04T10:01:01;21.10;92.50
13892;DHT22;7016;48.172;8.058;2023-06-04T10:03:48;21.20;93.00
13892;DHT22;7016;48.172;8.058;2023-06-04T10:06:37;21.10;91.60
13892;DHT22;7016;48.172;8.058;2023-06-04T10:09:25;21.10;91.90
13892;DHT22;7016;48.172;8.058;2023-06-04T10:12:16;21.20;91.80
13892;DHT22;7016;48.172;8.058;2023-06-04T10:15:11;21.20;91.90
13892;DHT22;7016;48.172;8.058;2023-06-04T10:17:58;21.40;91.70
13892;DHT22;7016;48.172;8.058;2023-06-04T10:20:45;21.70;92.00
13892;DHT22;7016;48.172;8.058;2023-06-04T10:23:31;21.90;91.30
13892;DHT22;7016;48.172;8.058;2023-06-04T10:26:17;22.10;90.50
13892;DHT22;7016;48.172;8.058;2023-06-04T10:29:05;23.80;91.00
13892;DHT22;7016;48.172;8.058;2023-06-04T10:31:55;22.30;91.00
13892;DHT22;7016;48.172;8.058;2023-06-04T10:34:41;22.50;91.00
13892;DHT22;7016;48.172;8.058;2023-06-04T10:37:28;22.50;89.30
13892;DHT22;7016;48.172;8.058;2023-06-04T10:40:15;22.50;90.00
13892;DHT22;7016;48.172;8.058;2023-06-04T10:43:09;22.40;90.00
13892;DHT22;7016;48.172;8.058;2023-06-04T10:45:55;22.40;90.30
13892;DHT22;7016;48.172;8.058;2023-06-04T10:48:52;22.40;90.10
13892;DHT22;7016;48.172;8.058;2023-06-04T10:51:39;22.40;90.40
13892;DHT22;7016;48.172;8.058;2023-06-04T10:54:25;22.40;90.20
13892;DHT22;7016;48.172;8.058;2023-06-04T10:57:16;22.50;90.20
13892;DHT22;7016;48.172;8.058;2023-06-04T11:00:03;22.50;89.90
13892;DHT22;7016;48.172;8.058;2023-06-04T11:02:54;22.50;89.60
13892;DHT22;7016;48.172;8.058;2023-06-04T11:05:44;22.50;89.10
13892;DHT22;7016;48.172;8.058;2023-06-04T11:08:34;22.60;90.40
13892;DHT22;7016;48.172;8.058;2023-06-04T11:11:20;22.70;90.50
13892;DHT22;7016;48.172;8.058;2023-06-04T11:14:10;22.80;90.60
13892;DHT22;7016;48.172;8.058;2023-06-04T11:17:12;22.80;90.60
13892;DHT22;7016;48.172;8.058;2023-06-04T11:19:58;22.80;89.70
13892;DHT22;7016;48.172;8.058;2023-06-04T11:22:55;22.80;89.10
13892;DHT22;7016;48.172;8.058;2023-06-04T11:25:43;22.80;89.70
13892;DHT22;7016;48.172;8.058;2023-06-04T11:28:30;22.90;89.70
13892;DHT22;7016;48.172;8.058;2023-06-04T11:31:16;22.90;90.20
13892;DHT22;7016;48.172;8.058;2023-06-04T11:34:02;23.00;90.90
13892;DHT22;7016;48.172;8.058;2023-06-04T11:36:48;22.90;90.50
13892;DHT22;7016;48.172;8.058;2023-06-04T11:39:36;23.00;90.50
13892;DHT22;7016;48.172;8.058;2023-06-04T11:42:24;23.00;91.20
13892;DHT22;7016;48.172;8.058;2023-06-04T11:45:12;23.00;90.00
13892;DHT22;7016;48.172;8.058;2023-06-04T11:47:59;23.00;89.90
13892;DHT22;7016;48.172;8.058;2023-06-04T11:50:46;23.00;90.20
13892;DHT22;7016;48.172;8.058;2023-06-04T11:53:32;23.00;90.30
13892;DHT22;7016;48.172;8.058;2023-06-04T11:56:18;23.00;90.80
13892;DHT22;7016;48.172;8.058;2023-06-04T11:59:05;22.90;90.40
13892;DHT22;7016;48.172;8.058;2023-06-04T12:01:54;22.90;91.00
13892;DHT22;7016;48.172;8.058;2023-06-04T12:04:40;23.00;90.90
13892;DHT22;7016;48.172;8.058;2023-06-04T12:07:26;23.00;90.90
13892;DHT22;7016;48.172;8.058;2023-06-04T12:10:13;22.90;90.30
13892;DHT22;7016;48.172;8.058;2023-06-04T12:13:00;23.00;90.20
13892;DHT22;7016;48.172;8.058;2023-06-04T12:15:53;22.90;90.10
13892;DHT22;7016;48.172;8.058;2023-06-04T12:18:39;23.00;90.80
13892;DHT22;7016;48.172;8.058;2023-06-04T12:21:25;23.10;90.60
13892;DHT22;7016;48.172;8.058;2023-06-04T12:24:14;23.10;89.60
13892;DHT22;7016;48.172;8.058;2023-06-04T12:27:08;23.30;90.80
13892;DHT22;7016;48.172;8.058;2023-06-04T12:32:48;23.50;90.00
13892;DHT22;7016;48.172;8.058;2023-06-04T12:35:36;23.50;88.60
13892;DHT22;7016;48.172;8.058;2023-06-04T12:38:22;23.50;86.00
13892;DHT22;7016;48.172;8.058;2023-06-04T12:41:08;23.50;86.30
13892;DHT22;7016;48.172;8.058;2023-06-04T12:43:55;23.40;86.90
13892;DHT22;7016;48.172;8.058;2023-06-04T12:46:41;23.50;86.60
13892;DHT22;7016;48.172;8.058;2023-06-04T12:49:28;23.40;86.50
13892;DHT22;7016;48.172;8.058;2023-06-04T12:52:14;23.40;86.00
13892;DHT22;7016;48.172;8.058;2023-06-04T12:55:00;23.50;88.40
13892;DHT22;7016;48.172;8.058;2023-06-04T12:57:47;23.70;86.60
13892;DHT22;7016;48.172;8.058;2023-06-04T13:00:34;23.70;86.80
13892;DHT22;7016;48.172;8.058;2023-06-04T13:03:20;23.70;85.40
13892;DHT22;7016;48.172;8.058;2023-06-04T13:06:06;23.60;85.20
13892;DHT22;7016;48.172;8.058;2023-06-04T13:08:52;23.60;85.80
13892;DHT22;7016;48.172;8.058;2023-06-04T13:11:41;23.70;87.20
13892;DHT22;7016;48.172;8.058;2023-06-04T13:14:27;23.80;86.60
13892;DHT22;7016;48.172;8.058;2023-06-04T13:17:16;23.80;84.80
13892;DHT22;7016;48.172;8.058;2023-06-04T13:20:02;23.80;85.80
13892;DHT22;7016;48.172;8.058;2023-06-04T13:22:49;23.90;85.50
13892;DHT22;7016;48.172;8.058;2023-06-04T13:25:35;23.90;85.50
13892;DHT22;7016;48.172;8.058;2023-06-04T13:28:22;23.90;86.00
13892;DHT22;7016;48.172;8.058;2023-06-04T13:31:08;23.90;85.70
13892;DHT22;7016;48.172;8.058;2023-06-04T13:33:54;24.00;85.60
13892;DHT22;7016;48.172;8.058;2023-06-04T13:36:40;24.00;87.40
13892;DHT22;7016;48.172;8.058;2023-06-04T13:39:26;23.90;84.60
13892;DHT22;7016;48.172;8.058;2023-06-04T13:42:13;23.80;84.10
13892;DHT22;7016;48.172;8.058;2023-06-04T13:44:59;23.60;82.60
13892;DHT22;7016;48.172;8.058;2023-06-04T13:47:45;23.70;85.00
13892;DHT22;7016;48.172;8.058;2023-06-04T13:50:33;23.60;85.30
13892;DHT22;7016;48.172;8.058;2023-06-04T13:53:19;23.80;85.30
13892;DHT22;7016;48.172;8.058;2023-06-04T13:56:05;23.70;83.00
13892;DHT22;7016;48.172;8.058;2023-06-04T13:58:51;23.60;84.80
13892;DHT22;7016;48.172;8.058;2023-06-04T14:01:38;23.60;84.90
13892;DHT22;7016;48.172;8.058;2023-06-04T14:04:24;23.30;83.10
13892;DHT22;7016;48.172;8.058;2023-06-04T14:07:10;22.90;83.00
13892;DHT22;7016;48.172;8.058;2023-06-04T14:09:56;22.70;83.60
13892;DHT22;7016;48.172;8.058;2023-06-04T14:12:43;22.80;84.60
13892;DHT22;7016;48.172;8.058;2023-06-04T14:15:30;22.80;84.20
13892;DHT22;7016;48.172;8.058;2023-06-04T14:18:16;22.80;83.40
13892;DHT22;7016;48.172;8.058;2023-06-04T14:21:02;22.50;83.50
13892;DHT22;7016;48.172;8.058;2023-06-04T14:23:48;22.30;83.20
13892;DHT22;7016;48.172;8.058;2023-06-04T14:26:36;22.40;84.80
13892;DHT22;7016;48.172;8.058;2023-06-04T14:29:22;22.70;83.10
13892;DHT22;7016;48.172;8.058;2023-06-04T14:32:08;22.60;82.60
13892;DHT22;7016;48.172;8.058;2023-06-04T14:34:55;22.60;82.10
13892;DHT22;7016;48.172;8.058;2023-06-04T14:37:41;22.40;80.80
13892;DHT22;7016;48.172;8.058;2023-06-04T14:40:27;22.30;81.50
13892;DHT22;7016;48.172;8.058;2023-06-04T14:43:13;22.50;81.90
13892;DHT22;7016;48.172;8.058;2023-06-04T14:45:59;22.50;82.50
13892;DHT22;7016;48.172;8.058;2023-06-04T14:48:46;22.40;80.20
13892;DHT22;7016;48.172;8.058;2023-06-04T14:51:32;22.40;81.00
13892;DHT22;7016;48.172;8.058;2023-06-04T14:54:18;22.50;81.30
13892;DHT22;7016;48.172;8.058;2023-06-04T14:57:04;22.50;81.90
13892;DHT22;7016;48.172;8.058;2023-06-04T14:59:50;22.40;81.40
13892;DHT22;7016;48.172;8.058;2023-06-04T15:02:37;22.60;82.70
13892;DHT22;7016;48.172;8.058;2023-06-04T15:05:23;22.60;80.60
13892;DHT22;7016;48.172;8.058;2023-06-04T15:08:09;22.70;81.40
13892;DHT22;7016;48.172;8.058;2023-06-04T15:10:55;22.60;81.10
13892;DHT22;7016;48.172;8.058;2023-06-04T15:13:41;22.80;81.00
13892;DHT22;7016;48.172;8.058;2023-06-04T15:16:28;23.00;81.70
13892;DHT22;7016;48.172;8.058;2023-06-04T15:19:14;23.00;82.90
13892;DHT22;7016;48.172;8.058;2023-06-04T15:22:00;22.80;82.80
13892;DHT22;7016;48.172;8.058;2023-06-04T15:24:46;22.90;83.70
13892;DHT22;7016;48.172;8.058;2023-06-04T15:27:32;23.10;84.60
13892;DHT22;7016;48.172;8.058;2023-06-04T15:30:18;23.10;85.30
13892;DHT22;7016;48.172;8.058;2023-06-04T15:33:06;23.30;81.20
13892;DHT22;7016;48.172;8.058;2023-06-04T15:35:52;23.40;80.10
13892;DHT22;7016;48.172;8.058;2023-06-04T15:38:39;23.40;79.10
13892;DHT22;7016;48.172;8.058;2023-06-04T15:41:25;23.40;78.80
13892;DHT22;7016;48.172;8.058;2023-06-04T15:44:11;23.50;80.30
13892;DHT22;7016;48.172;8.058;2023-06-04T15:46:58;23.50;78.40
13892;DHT22;7016;48.172;8.058;2023-06-04T15:49:44;23.50;77.50
13892;DHT22;7016;48.172;8.058;2023-06-04T15:52:30;23.50;77.40
13892;DHT22;7016;48.172;8.058;2023-06-04T15:55:16;23.60;78.30
13892;DHT22;7016;48.172;8.058;2023-06-04T15:58:02;23.60;77.80
13892;DHT22;7016;48.172;8.058;2023-06-04T16:00:48;23.60;79.00
13892;DHT22;7016;48.172;8.058;2023-06-04T16:03:35;23.40;78.50
13892;DHT22;7016;48.172;8.058;2023-06-04T16:06:22;23.40;78.30
13892;DHT22;7016;48.172;8.058;2023-06-04T16:09:08;23.50;79.00
13892;DHT22;7016;48.172;8.058;2023-06-04T16:11:54;23.50;77.70
13892;DHT22;7016;48.172;8.058;2023-06-04T16:14:40;23.50;79.30
13892;DHT22;7016;48.172;8.058;2023-06-04T16:17:26;23.60;79.90
13892;DHT22;7016;48.172;8.058;2023-06-04T16:20:13;23.60;79.10
13892;DHT22;7016;48.172;8.058;2023-06-04T16:23:00;23.60;78.30
13892;DHT22;7016;48.172;8.058;2023-06-04T16:25:46;23.50;80.40
13892;DHT22;7016;48.172;8.058;2023-06-04T16:28:32;23.60;81.10
13892;DHT22;7016;48.172;8.058;2023-06-04T16:31:18;23.60;81.80
13892;DHT22;7016;48.172;8.058;2023-06-04T16:34:05;23.70;81.30
13892;DHT22;7016;48.172;8.058;2023-06-04T16:36:51;23.70;86.40
13892;DHT22;7016;48.172;8.058;2023-06-04T16:39:37;23.60;81.20
13892;DHT22;7016;48.172;8.058;2023-06-04T16:42:23;23.60;80.90
13892;DHT22;7016;48.172;8.058;2023-06-04T16:45:13;23.50;79.80
13892;DHT22;7016;48.172;8.058;2023-06-04T16:48:00;23.50;80.70
13892;DHT22;7016;48.172;8.058;2023-06-04T16:50:46;23.50;84.90
13892;DHT22;7016;48.172;8.058;2023-06-04T16:53:32;23.50;83.70
13892;DHT22;7016;48.172;8.058;2023-06-04T16:56:19;23.50;85.70
13892;DHT22;7016;48.172;8.058;2023-06-04T16:59:07;23.50;86.00
13892;DHT22;7016;48.172;8.058;2023-06-04T17:01:54;23.50;83.40
13892;DHT22;7016;48.172;8.058;2023-06-04T17:04:41;23.50;84.70
13892;DHT22;7016;48.172;8.058;2023-06-04T17:07:28;23.50;85.20
13892;DHT22;7016;48.172;8.058;2023-06-04T17:10:14;23.50;85.40
13892;DHT22;7016;48.172;8.058;2023-06-04T17:13:01;23.50;86.40
13892;DHT22;7016;48.172;8.058;2023-06-04T17:15:47;23.50;87.40
13892;DHT22;7016;48.172;8.058;2023-06-04T17:18:33;23.60;87.30
13892;DHT22;7016;48.172;8.058;2023-06-04T17:21:19;23.60;88.00
13892;DHT22;7016;48.172;8.058;2023-06-04T17:24:06;23.60;89.20
13892;DHT22;7016;48.172;8.058;2023-06-04T17:26:53;23.60;88.30
13892;DHT22;7016;48.172;8.058;2023-06-04T17:29:39;23.50;87.10
13892;DHT22;7016;48.172;8.058;2023-06-04T17:32:25;23.50;88.40
13892;DHT22;7016;48.172;8.058;2023-06-04T17:35:13;23.50;87.70
13892;DHT22;7016;48.172;8.058;2023-06-04T17:37:59;23.40;86.80
13892;DHT22;7016;48.172;8.058;2023-06-04T17:40:45;23.40;87.70
13892;DHT22;7016;48.172;8.058;2023-06-04T17:43:31;23.30;89.10
13892;DHT22;7016;48.172;8.058;2023-06-04T17:46:18;23.20;90.10
13892;DHT22;7016;48.172;8.058;2023-06-04T17:49:04;23.20;90.10
13892;DHT22;7016;48.172;8.058;2023-06-04T17:51:55;23.20;91.00
13892;DHT22;7016;48.172;8.058;2023-06-04T17:54:41;23.00;91.20
13892;DHT22;7016;48.172;8.058;2023-06-04T17:57:29;22.90;91.70
13892;DHT22;7016;48.172;8.058;2023-06-04T18:00:16;22.90;91.70